Terminal Aerodrome Forecast
Issued by NWS Midland/Odessa, TX

Home | Current Version | Previous Version | Text Only | Print | Product List | Glossary On
Versions: 1 2 3 4 5 6 7 8 9 10 11 12 13 14
765
FTUS44 KMAF 191120
TAFMAF
TAF
KMAF 191120Z 1912/2012 16013KT P6SM SCT250
     FM191600 15014G24KT P6SM SCT040 BKN250
     FM200000 15013KT P6SM FEW200
     FM201000 16012KT P6SM OVC010=

USA.gov is the U.S. government's official web portal to all federal, state and local government web resources and services.